createdAt,value
2022-08-14T00:02:20.164Z,100851.81
2022-08-14T00:04:45.853Z,100839.03
2022-08-14T00:07:14.183Z,100835.13
2022-08-14T00:10:01.390Z,100833.16
2022-08-14T00:12:34.098Z,100827.91
2022-08-14T00:15:09.347Z,100831.53
2022-08-14T00:17:38.143Z,100826.78
2022-08-14T00:20:14.745Z,100824.81
2022-08-14T00:22:57.461Z,100820.41
2022-08-14T00:25:24.670Z,100814.84
2022-08-14T00:27:56.306Z,100806.50
2022-08-14T00:30:22.929Z,100810.09
2022-08-14T00:32:56.601Z,100813.69
2022-08-14T00:35:22.893Z,100809.28
2022-08-14T00:38:08.493Z,100805.34
2022-08-14T00:40:35.566Z,100806.50
2022-08-14T00:43:01.450Z,100804.53
2022-08-14T00:45:27.576Z,100804.53
2022-08-14T00:47:57.524Z,100790.63
2022-08-14T00:50:27.512Z,100792.59
2022-08-14T00:52:55.033Z,100787.03
2022-08-14T00:55:21.014Z,100791.44
2022-08-14T00:58:07.597Z,100780.31
2022-08-14T01:00:43.002Z,100788.66
2022-08-14T01:03:18.943Z,100771.97
2022-08-14T01:05:52.038Z,100765.91
2022-08-14T01:08:20.585Z,100766.41
2022-08-14T01:11:06.106Z,100768.38
2022-08-14T01:13:42.511Z,100768.38
2022-08-14T01:16:14.911Z,100754.47
2022-08-14T01:19:01.460Z,100758.38
2022-08-14T01:21:38.717Z,100760.84
2022-08-14T01:24:28.765Z,100756.41
2022-08-14T01:27:00.902Z,100756.41
2022-08-14T01:29:58.287Z,100745.28
2022-08-14T01:32:15.582Z,100736.94
2022-08-14T01:35:19.429Z,100738.09
2022-08-14T01:37:27.960Z,100725.00
2022-08-14T01:39:57.288Z,100723.03
2022-08-14T01:42:40.563Z,100718.31
2022-08-14T01:45:14.665Z,100717.47
2022-08-14T01:47:50.989Z,100720.25
2022-08-14T01:50:17.378Z,100708.31
2022-08-14T01:52:59.400Z,100717.47
2022-08-14T01:55:30.879Z,100703.56
2022-08-14T01:58:18.205Z,100698.34
2022-08-14T02:00:43.775Z,100695.22
2022-08-14T02:03:13.633Z,100690.47
2022-08-14T02:05:41.497Z,100695.22
2022-08-14T02:08:08.952Z,100693.25
2022-08-14T02:10:46.016Z,100690.47
2022-08-14T02:13:12.728Z,100681.31
2022-08-14T02:15:39.965Z,100693.25
2022-08-14T02:18:09.104Z,100692.16
2022-08-14T02:20:35.876Z,100696.06
2022-08-14T02:23:02.311Z,100695.22
2022-08-14T02:25:31.085Z,100695.22
2022-08-14T02:28:26.101Z,100696.88
2022-08-14T02:30:43.760Z,100702.44
2022-08-14T02:33:11.048Z,100706.34
2022-08-14T02:35:41.101Z,100706.34
2022-08-14T02:38:06.957Z,100695.22
2022-08-14T02:40:38.323Z,100698.00
2022-08-14T02:43:07.812Z,100698.00
2022-08-14T02:45:38.900Z,100702.75
2022-08-14T02:49:01.995Z,100705.22
2022-08-14T02:51:00.734Z,100698.84
2022-08-14T02:53:27.441Z,100704.41
2022-08-14T02:55:55.520Z,100705.22
2022-08-14T02:58:30.519Z,100701.63
2022-08-14T03:00:57.410Z,100707.19
2022-08-14T03:03:23.952Z,100703.56
2022-08-14T03:05:51.676Z,100700.78
2022-08-14T03:08:20.446Z,100704.41
2022-08-14T03:10:49.333Z,100708.84
2022-08-14T03:13:19.825Z,100702.44
2022-08-14T03:15:51.024Z,100698.84
2022-08-14T03:18:23.331Z,100699.66
2022-08-14T03:21:01.733Z,100687.69
2022-08-14T03:23:27.573Z,100691.31
2022-08-14T03:25:53.204Z,100696.06
2022-08-14T03:28:29.508Z,100686.88
2022-08-14T03:30:56.760Z,100688.53
2022-08-14T03:33:26.926Z,100680.50
2022-08-14T03:36:00.280Z,100693.25
2022-08-14T03:39:16.051Z,100684.09
2022-08-14T03:41:27.952Z,100684.09
2022-08-14T03:45:18.957Z,100680.50
2022-08-14T03:46:54.576Z,100682.16
2022-08-14T03:49:24.386Z,100675.75
2022-08-14T03:51:54.776Z,100678.53
2022-08-14T03:54:20.747Z,100677.72
2022-08-14T03:56:46.484Z,100672.16
2022-08-14T03:59:18.129Z,100672.16
2022-08-14T04:01:57.785Z,100676.59
2022-08-14T04:04:27.239Z,100670.19
2022-08-14T04:06:53.040Z,100670.19
2022-08-14T04:09:18.658Z,100667.41
2022-08-14T04:11:45.730Z,100666.59
2022-08-14T04:14:15.218Z,100665.44
2022-08-14T04:16:47.159Z,100673.81
2022-08-14T04:19:19.024Z,100668.22
2022-08-14T04:22:02.200Z,100671.00
2022-08-14T04:24:29.944Z,100661.84
2022-08-14T04:26:57.532Z,100678.53
2022-08-14T04:29:23.191Z,100674.94
2022-08-14T04:33:10.596Z,100670.19
2022-08-14T04:34:41.935Z,100675.75
2022-08-14T04:37:28.231Z,100671.00
2022-08-14T04:40:15.247Z,100663.81
2022-08-14T04:43:01.456Z,100658.25
2022-08-14T04:45:43.052Z,100661.84
2022-08-14T04:48:12.731Z,100653.50
2022-08-14T04:50:44.891Z,100655.47
2022-08-14T04:53:13.840Z,100656.28
2022-08-14T04:55:41.915Z,100653.50
2022-08-14T04:58:09.196Z,100654.31
2022-08-14T05:00:50.024Z,100647.94
2022-08-14T05:03:20.188Z,100640.41
2022-08-14T05:05:49.435Z,100647.13
2022-08-14T05:08:31.714Z,100647.94
2022-08-14T05:11:06.737Z,100656.28
2022-08-14T05:13:53.291Z,100642.38
2022-08-14T05:16:25.675Z,100637.97
2022-08-14T05:19:25.351Z,100647.94
2022-08-14T05:21:59.334Z,100640.41
2022-08-14T05:24:22.797Z,100639.59
2022-08-14T05:26:48.676Z,100637.97
2022-08-14T05:29:15.413Z,100633.22
2022-08-14T05:31:41.286Z,100628.47
2022-08-14T05:34:08.640Z,100627.66
2022-08-14T05:36:35.035Z,100625.69
2022-08-14T05:39:03.375Z,100628.47
2022-08-14T05:41:48.558Z,100619.31
2022-08-14T05:44:14.993Z,100621.28
2022-08-14T05:46:41.025Z,100616.53
2022-08-14T05:49:08.388Z,100611.78
2022-08-14T05:51:34.757Z,100614.56
2022-08-14T05:54:13.599Z,100618.16
2022-08-14T05:56:47.357Z,100618.50
2022-08-14T05:59:14.380Z,100608.19
2022-08-14T06:01:42.465Z,100609.00
2022-08-14T06:04:09.368Z,100606.22
2022-08-14T06:06:38.744Z,100609.00
2022-08-14T06:09:04.773Z,100612.59
2022-08-14T06:11:31.212Z,100609.00
2022-08-14T06:13:57.726Z,100614.56
2022-08-14T06:16:23.354Z,100615.09
2022-08-14T06:18:52.540Z,100608.19
2022-08-14T06:21:20.463Z,100612.59
2022-08-14T06:23:49.067Z,100607.03
2022-08-14T06:26:14.979Z,100611.50
2022-08-14T06:28:45.662Z,100607.88
2022-08-14T06:31:11.378Z,100606.22
2022-08-14T06:35:09.255Z,100607.88
2022-08-14T06:36:22.599Z,100609.81
2022-08-14T06:38:51.173Z,100609.00
2022-08-14T06:41:19.142Z,100606.22
2022-08-14T06:43:46.786Z,100600.66
2022-08-14T06:46:23.126Z,100597.88
2022-08-14T06:48:58.340Z,100594.63
2022-08-14T06:51:23.962Z,100597.06
2022-08-14T06:53:49.647Z,100600.66
2022-08-14T06:56:15.710Z,100586.75
2022-08-14T06:58:41.405Z,100593.13
2022-08-14T07:01:28.193Z,100589.53
2022-08-14T07:04:23.981Z,100583.16
2022-08-14T07:06:51.940Z,100581.53
2022-08-14T07:09:23.065Z,100583.16
2022-08-14T07:11:49.523Z,100579.56
2022-08-14T07:14:15.157Z,100577.59
2022-08-14T07:16:41.582Z,100573.19
2022-08-14T07:19:09.015Z,100568.44
2022-08-14T07:21:34.638Z,100565.66
2022-08-14T07:24:03.026Z,100560.09
2022-08-14T07:26:29.530Z,100572.03
2022-08-14T07:28:55.274Z,100564.50
2022-08-14T07:31:20.890Z,100562.88
2022-08-14T07:33:50.229Z,100565.66
2022-08-14T07:36:27.715Z,100561.72
2022-08-14T07:38:58.198Z,100563.34
2022-08-14T07:41:23.827Z,100558.13
2022-08-14T07:43:55.311Z,100559.75
2022-08-14T07:46:29.529Z,100559.75
2022-08-14T07:48:57.163Z,100549.78
2022-08-14T07:51:22.874Z,100558.94
2022-08-14T07:53:49.649Z,100554.53
2022-08-14T07:56:47.338Z,100551.75
2022-08-14T07:59:09.040Z,100547.00
2022-08-14T08:01:34.914Z,100547.81
2022-08-14T08:04:03.337Z,100550.59
2022-08-14T08:06:29.477Z,100551.41
2022-08-14T08:09:01.465Z,100550.59
2022-08-14T08:11:34.985Z,100555.34
2022-08-14T08:14:06.307Z,100555.34
2022-08-14T08:16:37.406Z,100560.91
2022-08-14T08:19:12.455Z,100550.59
2022-08-14T08:21:39.561Z,100554.53
2022-08-14T08:24:09.616Z,100556.16
2022-08-14T08:26:35.926Z,100549.78
2022-08-14T08:29:05.362Z,100552.56
2022-08-14T08:31:32.849Z,100556.16
2022-08-14T08:34:04.374Z,100546.19
2022-08-14T08:36:39.887Z,100543.06
2022-08-14T08:39:16.410Z,100538.66
2022-08-14T08:41:49.476Z,100535.88
2022-08-14T08:44:31.772Z,100537.84
2022-08-14T08:47:04.300Z,100537.84
2022-08-14T08:49:43.352Z,100545.03
2022-08-14T08:52:25.456Z,100544.22
2022-08-14T08:54:56.715Z,100535.88
2022-08-14T08:57:22.500Z,100538.66
2022-08-14T08:59:55.249Z,100529.50
2022-08-14T09:02:26.130Z,100533.09
2022-08-14T09:05:01.227Z,100522.78
2022-08-14T09:07:27.196Z,100515.59
2022-08-14T09:09:59.171Z,100522.78
2022-08-14T09:12:31.459Z,100532.28
2022-08-14T09:15:12.896Z,100529.50
2022-08-14T09:17:40.281Z,100531.13
2022-08-14T09:20:07.500Z,100527.53
2022-08-14T09:22:47.461Z,100531.13
2022-08-14T09:25:15.084Z,100519.19
2022-08-14T09:27:40.955Z,100510.03
2022-08-14T09:30:30.573Z,100511.66
2022-08-14T09:36:24.231Z,100500.88
2022-08-14T09:39:23.282Z,100494.16
2022-08-14T09:42:21.717Z,100496.13
2022-08-14T09:45:15.551Z,100487.78
2022-08-14T09:47:51.877Z,100489.41
2022-08-14T09:53:02.562Z,100469.94
2022-08-14T09:55:41.447Z,100463.56
2022-08-14T09:58:15.032Z,100453.59
2022-08-14T10:00:52.952Z,100460.78
2022-08-14T10:03:35.914Z,100451.63
2022-08-14T10:06:12.863Z,100463.56
2022-08-14T10:08:44.426Z,100469.94
2022-08-14T10:11:16.998Z,100456.03
2022-08-14T10:13:53.132Z,100448.84
2022-08-14T10:16:33.726Z,100451.63
2022-08-14T10:19:09.541Z,100443.28
2022-08-14T10:21:38.513Z,100438.53
2022-08-14T10:24:08.539Z,100444.91
2022-08-14T10:26:35.689Z,100435.75
2022-08-14T10:29:19.789Z,100426.59
2022-08-14T10:31:56.517Z,100434.94
2022-08-14T10:34:29.056Z,100423.81
2022-08-14T10:37:14.196Z,100419.41
2022-08-14T10:40:02.000Z,100421.03
2022-08-14T10:42:43.808Z,100410.72
2022-08-14T10:45:20.238Z,100405.97
2022-08-14T10:48:09.733Z,100400.41
2022-08-14T10:50:37.730Z,100405.16
2022-08-14T10:53:04.703Z,100410.38
2022-08-14T10:55:33.711Z,100401.22
2022-08-14T10:58:09.752Z,100398.44
2022-08-14T11:00:36.052Z,100397.63
2022-08-14T11:03:08.722Z,100396.81
2022-08-14T11:05:40.856Z,100394.84
2022-08-14T11:08:09.142Z,100394.84
2022-08-14T11:10:54.943Z,100386.50
2022-08-14T11:13:24.826Z,100386.50
2022-08-14T11:15:50.581Z,100393.69
2022-08-14T11:18:20.390Z,100394.03
2022-08-14T11:20:58.844Z,100390.09
2022-08-14T11:23:38.668Z,100380.13
2022-08-14T11:26:07.870Z,100380.13
2022-08-14T11:28:47.032Z,100384.06
2022-08-14T11:31:18.627Z,100380.94
2022-08-14T11:33:50.358Z,100370.16
2022-08-14T11:36:18.681Z,100380.94
2022-08-14T11:38:45.326Z,100386.50
2022-08-14T11:41:12.341Z,100373.41
2022-08-14T11:43:40.602Z,100363.44
2022-08-14T11:46:17.686Z,100361.81
2022-08-14T11:49:03.104Z,100353.13
2022-08-14T11:51:30.901Z,100361.47
2022-08-14T11:54:04.570Z,100348.72
2022-08-14T11:56:40.793Z,100340.38
2022-08-14T11:59:13.991Z,100342.34
2022-08-14T12:01:41.256Z,100345.59
2022-08-14T12:04:32.019Z,100342.81
2022-08-14T12:06:58.265Z,100329.25
2022-08-14T12:09:30.763Z,100326.47
2022-08-14T12:11:56.951Z,100320.91
2022-08-14T12:14:30.850Z,100323.34
2022-08-14T12:17:03.437Z,100322.88
2022-08-14T12:19:33.785Z,100316.97
2022-08-14T12:22:01.390Z,100307.81
2022-08-14T12:24:36.160Z,100305.84
2022-08-14T12:27:02.789Z,100307.81
2022-08-14T12:29:28.746Z,100305.84
2022-08-14T12:31:59.607Z,100299.47
2022-08-14T12:34:31.358Z,100294.72
2022-08-14T12:37:05.805Z,100279.19
2022-08-14T12:39:39.532Z,100278.88
2022-08-14T12:42:06.306Z,100276.06
2022-08-14T12:44:34.457Z,100276.41
2022-08-14T12:47:02.556Z,100266.09
2022-08-14T12:49:28.344Z,100256.94
2022-08-14T12:51:57.461Z,100254.16
2022-08-14T12:54:28.205Z,100256.13
2022-08-14T12:57:19.707Z,100248.59
2022-08-14T12:59:46.607Z,100239.44
2022-08-14T13:02:26.053Z,100233.88
2022-08-14T13:04:54.658Z,100235.53
2022-08-14T13:07:20.770Z,100233.56
2022-08-14T13:09:47.168Z,100226.38
2022-08-14T13:12:33.269Z,100228.00
2022-08-14T13:14:59.935Z,100228.81
2022-08-14T13:17:28.281Z,100228.00
2022-08-14T13:19:56.191Z,100228.81
2022-08-14T13:22:31.978Z,100234.38
2022-08-14T13:25:05.184Z,100208.53
2022-08-14T13:27:32.734Z,100216.88
2022-08-14T13:30:10.222Z,100218.50
2022-08-14T13:32:39.666Z,100205.75
2022-08-14T13:35:10.976Z,100201.00
2022-08-14T13:37:39.763Z,100206.56
2022-08-14T13:40:06.855Z,100200.19
2022-08-14T13:42:33.345Z,100184.66
2022-08-14T13:45:01.516Z,100191.03
2022-08-14T13:47:29.599Z,100187.09
2022-08-14T13:50:01.890Z,100190.69
2022-08-14T13:52:51.958Z,100186.28
2022-08-14T13:55:22.154Z,100174.34
2022-08-14T13:58:03.137Z,100173.19
2022-08-14T14:00:32.299Z,100169.59
2022-08-14T14:02:58.381Z,100171.22
2022-08-14T14:05:25.054Z,100165.19
2022-08-14T14:08:18.917Z,100166.81
2022-08-14T14:10:58.559Z,100170.41
2022-08-14T14:13:24.606Z,100164.84
2022-08-14T14:15:58.449Z,100160.09
2022-08-14T14:18:33.740Z,100154.53
2022-08-14T14:21:01.466Z,100157.66
2022-08-14T14:23:27.977Z,100150.94
2022-08-14T14:25:57.048Z,100151.28
2022-08-14T14:28:28.316Z,100141.78
2022-08-14T14:30:57.317Z,100148.16
2022-08-14T14:33:45.349Z,100148.16
2022-08-14T14:36:12.978Z,100147.34
2022-08-14T14:38:41.334Z,100127.88
2022-08-14T14:41:07.777Z,100141.78
2022-08-14T14:43:36.583Z,100143.41
2022-08-14T14:46:09.482Z,100135.06
2022-08-14T14:48:43.439Z,100135.06
2022-08-14T14:51:13.729Z,100129.50
2022-08-14T14:53:41.625Z,100126.72
2022-08-14T14:56:49.457Z,100132.28
2022-08-14T14:58:55.055Z,100132.28
2022-08-14T15:01:22.641Z,100131.47
2022-08-14T15:03:53.046Z,100128.69
2022-08-14T15:06:29.036Z,100125.91
2022-08-14T15:08:59.811Z,100126.72
2022-08-14T15:11:26.123Z,100118.38
2022-08-14T15:13:55.862Z,100122.00
2022-08-14T15:16:21.714Z,100117.56
2022-08-14T15:18:49.105Z,100124.78
2022-08-14T15:21:14.907Z,100119.22
2022-08-14T15:23:44.406Z,100118.06
2022-08-14T15:26:13.421Z,100119.22
2022-08-14T15:29:03.257Z,100108.09
2022-08-14T15:31:31.582Z,100112.81
2022-08-14T15:34:46.051Z,100107.25
2022-08-14T15:37:05.063Z,100110.03
2022-08-14T15:39:35.856Z,100107.25
2022-08-14T15:42:14.722Z,100105.31
2022-08-14T15:44:58.630Z,100099.75
2022-08-14T15:47:29.919Z,100096.97
2022-08-14T15:50:02.022Z,100100.88
2022-08-14T15:52:32.630Z,100093.34
2022-08-14T15:55:12.814Z,100090.56
2022-08-14T15:57:39.300Z,100083.38
2022-08-14T16:00:49.523Z,100090.25
2022-08-14T16:03:17.645Z,100081.41
2022-08-14T16:05:44.158Z,100081.09
2022-08-14T16:08:26.550Z,100075.53
2022-08-14T16:10:54.678Z,100074.72
2022-08-14T16:13:42.118Z,100076.66
2022-08-14T16:16:47.355Z,100068.31
2022-08-14T16:18:57.243Z,100073.88
2022-08-14T16:21:29.047Z,100073.88
2022-08-14T16:23:57.598Z,100065.53
2022-08-14T16:26:30.038Z,100063.59
2022-08-14T16:29:03.901Z,100065.53
2022-08-14T16:31:36.298Z,100061.63
2022-08-14T16:34:44.557Z,100067.50
2022-08-14T16:36:50.924Z,100062.44
2022-08-14T16:39:16.838Z,100058.84
2022-08-14T16:41:45.600Z,100053.59
2022-08-14T16:44:31.894Z,100045.25
2022-08-14T16:47:02.174Z,100050.50
2022-08-14T16:50:03.325Z,100054.41
2022-08-14T16:52:26.330Z,100043.28
2022-08-14T16:55:03.295Z,100031.34
2022-08-14T16:57:31.694Z,100041.34
2022-08-14T16:59:59.104Z,100035.78
2022-08-14T17:02:35.074Z,100031.03
2022-08-14T17:05:19.870Z,100019.91
2022-08-14T17:08:33.396Z,100028.25
2022-08-14T17:10:59.876Z,100025.47
2022-08-14T17:13:59.065Z,100021.88
2022-08-14T17:16:23.981Z,100017.13
2022-08-14T17:18:55.485Z,100018.25
2022-08-14T17:21:33.076Z,100019.09
2022-08-14T17:24:01.375Z,100019.09
2022-08-14T17:26:50.385Z,100022.69
2022-08-14T17:29:29.587Z,100022.69
2022-08-14T17:34:48.866Z,100015.16
2022-08-14T17:37:35.614Z,100014.34
2022-08-14T17:40:19.068Z,100002.88
2022-08-14T17:45:38.793Z,100019.09
2022-08-14T17:49:10.745Z,100011.56
2022-08-14T17:51:10.433Z,100012.38
2022-08-14T17:53:38.307Z,100019.09
2022-08-14T17:56:18.749Z,100012.38
2022-08-14T17:58:44.720Z,100011.56
2022-08-14T18:01:12.338Z,100015.16
2022-08-14T18:03:50.195Z,100018.75
2022-08-14T18:06:38.407Z,100020.72
2022-08-14T18:09:25.405Z,100019.91
2022-08-14T18:11:54.565Z,100015.97
2022-08-14T18:14:33.107Z,100017.94
2022-08-14T18:17:09.802Z,100018.75
2022-08-14T18:19:37.174Z,100019.56
2022-08-14T18:22:31.094Z,100013.19
2022-08-14T18:24:54.576Z,100015.97
2022-08-14T18:27:23.454Z,100017.94
2022-08-14T18:29:55.394Z,100018.75
2022-08-14T18:32:46.962Z,100021.53
2022-08-14T18:35:15.685Z,100024.31
2022-08-14T18:37:42.725Z,100021.53
2022-08-14T18:43:03.707Z,100018.75
2022-08-14T18:45:32.178Z,100023.50
2022-08-14T18:48:20.913Z,100023.50
2022-08-14T18:50:52.622Z,100015.97
2022-08-14T18:53:20.490Z,100024.31
2022-08-14T18:55:54.574Z,100022.34
2022-08-14T18:58:27.397Z,100027.09
2022-08-14T19:00:59.054Z,100036.25
2022-08-14T19:03:43.366Z,100030.69
2022-08-14T19:06:10.325Z,100029.88
2022-08-14T19:08:37.652Z,100038.22
2022-08-14T19:11:05.387Z,100026.28
2022-08-14T19:13:48.169Z,100031.50
2022-08-14T19:16:23.351Z,100034.28
2022-08-14T19:18:52.258Z,100036.25
2022-08-14T19:21:27.648Z,100027.91
2022-08-14T19:24:29.174Z,100031.50
2022-08-14T19:27:19.421Z,100027.91
2022-08-14T19:29:51.383Z,100032.66
2022-08-14T19:32:40.189Z,100032.66
2022-08-14T19:38:03.017Z,100035.44
2022-08-14T19:43:09.748Z,100016.78
2022-08-14T19:45:37.039Z,100027.09
2022-08-14T19:48:04.355Z,100028.72
2022-08-14T19:50:40.751Z,100031.50
2022-08-14T19:53:11.151Z,100028.72
2022-08-14T19:55:38.602Z,100027.91
2022-08-14T19:58:11.493Z,100031.50
2022-08-14T20:00:52.160Z,100027.09
2022-08-14T20:03:23.228Z,100030.34
2022-08-14T20:05:59.606Z,100026.75
2022-08-14T20:09:05.935Z,100026.75
2022-08-14T20:12:00.591Z,100023.16
2022-08-14T20:14:20.998Z,100025.94
2022-08-14T20:17:06.248Z,100030.34
2022-08-14T20:19:34.162Z,100025.94
2022-08-14T20:22:37.486Z,100028.72
2022-08-14T20:24:54.364Z,100012.84
2022-08-14T20:27:38.678Z,100021.19
2022-08-14T20:33:03.695Z,100027.91
2022-08-14T20:35:42.014Z,100024.78
2022-08-14T20:38:31.232Z,100023.16
2022-08-14T20:40:59.331Z,100020.38
2022-08-14T20:43:47.232Z,100025.13
2022-08-14T20:46:24.114Z,100026.75
2022-08-14T20:51:39.126Z,100020.38
2022-08-14T20:54:20.628Z,100016.44
2022-08-14T20:57:09.474Z,100016.44
2022-08-14T20:59:43.739Z,100017.25
2022-08-14T21:02:34.740Z,100006.97
2022-08-14T21:05:16.196Z,100018.41
2022-08-14T21:07:43.264Z,100014.81
2022-08-14T21:10:36.373Z,100012.03
2022-08-14T21:13:26.142Z,100006.13
2022-08-14T21:15:44.824Z,100008.09
2022-08-14T21:18:25.080Z,100001.72
2022-08-14T21:20:55.240Z,100006.13
2022-08-14T21:23:22.236Z,100002.53
2022-08-14T21:25:48.509Z,100000.56
2022-08-14T21:28:29.190Z,99999.75
2022-08-14T21:30:57.047Z,99996.97
2022-08-14T21:33:23.974Z,100006.13
2022-08-14T21:35:55.487Z,100006.13
2022-08-14T21:38:21.596Z,100006.97
2022-08-14T21:41:02.027Z,100006.13
2022-08-14T21:43:30.728Z,100001.72
2022-08-14T21:45:57.597Z,100005.31
2022-08-14T21:48:26.680Z,100006.97
2022-08-14T21:51:01.302Z,100003.34
2022-08-14T21:53:59.337Z,99991.41
2022-08-14T21:56:37.399Z,99995.84
2022-08-14T21:59:06.714Z,99983.06
2022-08-14T22:02:01.246Z,99995.00
2022-08-14T22:04:32.980Z,99988.63
2022-08-14T22:07:02.652Z,99995.00
2022-08-14T22:09:36.049Z,99991.41
2022-08-14T22:12:06.810Z,99990.59
2022-08-14T22:14:34.246Z,99988.63
2022-08-14T22:17:12.328Z,99986.66
2022-08-14T22:19:47.284Z,99981.09
2022-08-14T22:22:20.728Z,99985.84
2022-08-14T22:24:53.389Z,99989.44
2022-08-14T22:27:21.240Z,99975.53
2022-08-14T22:29:47.364Z,99983.88
2022-08-14T22:32:20.653Z,99984.72
2022-08-14T22:35:01.217Z,99985.84
2022-08-14T22:37:27.828Z,99991.41
2022-08-14T22:40:55.137Z,99973.59
2022-08-14T22:42:40.117Z,99993.06
2022-08-14T22:45:25.634Z,99990.28
2022-08-14T22:48:02.769Z,99993.06
2022-08-14T22:50:33.582Z,99982.75
2022-08-14T22:52:59.568Z,99985.03
2022-08-14T22:55:26.533Z,99980.28
2022-08-14T22:57:52.509Z,99976.38
2022-08-14T23:00:25.380Z,99974.72
2022-08-14T23:02:57.392Z,99967.19
2022-08-14T23:05:38.961Z,99968.84
2022-08-14T23:08:56.534Z,99960.50
2022-08-14T23:10:53.812Z,99962.47
2022-08-14T23:13:19.440Z,99953.63
2022-08-14T23:15:45.716Z,99953.28
2022-08-14T23:18:13.097Z,99953.28
2022-08-14T23:20:39.742Z,99947.72
2022-08-14T23:23:11.636Z,99953.28
2022-08-14T23:25:59.050Z,99949.69
2022-08-14T23:28:33.576Z,99956.06
2022-08-14T23:31:14.501Z,99977.19
2022-08-14T23:33:51.900Z,99968.84
2022-08-14T23:36:31.567Z,99965.25
2022-08-14T23:38:59.371Z,99964.91
2022-08-14T23:41:25.637Z,99956.06
2022-08-14T23:43:53.837Z,99958.03
2022-08-14T23:46:20.007Z,99948.56
2022-08-14T23:48:47.014Z,99948.56
2022-08-14T23:51:14.336Z,99946.59
2022-08-14T23:53:47.331Z,99943.00
2022-08-14T23:56:18.603Z,99943.81
2022-08-14T23:58:44.281Z,99943.00
